sensor_id;sensor_type;location;lat;lon;timestamp;P1;P2;P0
73241;PMS5003;65659;49.234;-2.094;2024-01-11T00:00:59;67;61;
73241;PMS5003;65659;49.234;-2.094;2024-01-11T00:03:25;53;49;
73241;PMS5003;65659;49.234;-2.094;2024-01-11T00:05:50;60;57;
73241;PMS5003;65659;49.234;-2.094;2024-01-11T00:08:15;64;60;
73241;PMS5003;65659;49.234;-2.094;2024-01-11T00:10:41;58;57;
73241;PMS5003;65659;49.234;-2.094;2024-01-11T00:13:07;56;52;
73241;PMS5003;65659;49.234;-2.094;2024-01-11T00:15:32;61;58;
73241;PMS5003;65659;49.234;-2.094;2024-01-11T00:17:58;59;57;
73241;PMS5003;65659;49.234;-2.094;2024-01-11T00:20:24;61;57;
73241;PMS5003;65659;49.234;-2.094;2024-01-11T00:22:49;58;53;
73241;PMS5003;65659;49.234;-2.094;2024-01-11T00:25:15;65;60;
73241;PMS5003;65659;49.234;-2.094;2024-01-11T00:27:40;49;48;
73241;PMS5003;65659;49.234;-2.094;2024-01-11T00:30:07;57;57;
73241;PMS5003;65659;49.234;-2.094;2024-01-11T00:32:31;61;56;
73241;PMS5003;65659;49.234;-2.094;2024-01-11T00:34:57;55;53;
73241;PMS5003;65659;49.234;-2.094;2024-01-11T00:37:22;61;58;
73241;PMS5003;65659;49.234;-2.094;2024-01-11T00:39:48;58;56;
73241;PMS5003;65659;49.234;-2.094;2024-01-11T00:42:14;61;60;
73241;PMS5003;65659;49.234;-2.094;2024-01-11T00:44:39;63;59;
73241;PMS5003;65659;49.234;-2.094;2024-01-11T00:47:04;66;63;
73241;PMS5003;65659;49.234;-2.094;2024-01-11T00:49:30;56;52;
73241;PMS5003;65659;49.234;-2.094;2024-01-11T00:51:55;50;48;
73241;PMS5003;65659;49.234;-2.094;2024-01-11T00:54:21;62;58;
73241;PMS5003;65659;49.234;-2.094;2024-01-11T00:56:47;54;52;
73241;PMS5003;65659;49.234;-2.094;2024-01-11T00:59:12;57;52;
73241;PMS5003;65659;49.234;-2.094;2024-01-11T01:01:38;54;52;
73241;PMS5003;65659;49.234;-2.094;2024-01-11T01:04:04;63;58;
73241;PMS5003;65659;49.234;-2.094;2024-01-11T01:06:29;58;55;
73241;PMS5003;65659;49.234;-2.094;2024-01-11T01:08:55;52;50;
73241;PMS5003;65659;49.234;-2.094;2024-01-11T01:11:20;53;52;
73241;PMS5003;65659;49.234;-2.094;2024-01-11T01:13:46;59;58;
73241;PMS5003;65659;49.234;-2.094;2024-01-11T01:16:11;53;50;
73241;PMS5003;65659;49.234;-2.094;2024-01-11T01:18:37;53;51;
73241;PMS5003;65659;49.234;-2.094;2024-01-11T01:21:03;59;55;
73241;PMS5003;65659;49.234;-2.094;2024-01-11T01:23:28;61;58;
73241;PMS5003;65659;49.234;-2.094;2024-01-11T01:25:53;52;49;
73241;PMS5003;65659;49.234;-2.094;2024-01-11T01:28:19;52;51;
73241;PMS5003;65659;49.234;-2.094;2024-01-11T01:30:44;65;61;
73241;PMS5003;65659;49.234;-2.094;2024-01-11T01:33:10;70;66;
73241;PMS5003;65659;49.234;-2.094;2024-01-11T01:35:35;63;57;
73241;PMS5003;65659;49.234;-2.094;2024-01-11T01:38:01;60;56;
73241;PMS5003;65659;49.234;-2.094;2024-01-11T01:40:26;58;54;
73241;PMS5003;65659;49.234;-2.094;2024-01-11T01:42:57;64;59;
73241;PMS5003;65659;49.234;-2.094;2024-01-11T01:45:17;59;58;
73241;PMS5003;65659;49.234;-2.094;2024-01-11T01:47:43;63;60;
73241;PMS5003;65659;49.234;-2.094;2024-01-11T01:50:09;61;57;
73241;PMS5003;65659;49.234;-2.094;2024-01-11T01:52:33;62;60;
73241;PMS5003;65659;49.234;-2.094;2024-01-11T01:54:58;64;62;
73241;PMS5003;65659;49.234;-2.094;2024-01-11T01:57:23;67;65;
73241;PMS5003;65659;49.234;-2.094;2024-01-11T01:59:49;63;60;
73241;PMS5003;65659;49.234;-2.094;2024-01-11T02:02:14;58;58;
73241;PMS5003;65659;49.234;-2.094;2024-01-11T02:04:39;66;61;
73241;PMS5003;65659;49.234;-2.094;2024-01-11T02:07:05;63;58;
73241;PMS5003;65659;49.234;-2.094;2024-01-11T02:09:31;62;58;
73241;PMS5003;65659;49.234;-2.094;2024-01-11T02:11:55;63;62;
73241;PMS5003;65659;49.234;-2.094;2024-01-11T02:14:21;60;58;
73241;PMS5003;65659;49.234;-2.094;2024-01-11T02:16:47;56;53;
73241;PMS5003;65659;49.234;-2.094;2024-01-11T02:19:13;61;58;
73241;PMS5003;65659;49.234;-2.094;2024-01-11T02:21:38;61;58;
73241;PMS5003;65659;49.234;-2.094;2024-01-11T02:24:03;62;61;
73241;PMS5003;65659;49.234;-2.094;2024-01-11T02:26:29;61;61;
73241;PMS5003;65659;49.234;-2.094;2024-01-11T02:28:54;66;63;
73241;PMS5003;65659;49.234;-2.094;2024-01-11T02:31:20;57;54;
73241;PMS5003;65659;49.234;-2.094;2024-01-11T02:33:46;61;60;
73241;PMS5003;65659;49.234;-2.094;2024-01-11T02:36:11;57;55;
73241;PMS5003;65659;49.234;-2.094;2024-01-11T02:38:36;60;57;
73241;PMS5003;65659;49.234;-2.094;2024-01-11T02:41:02;56;56;
73241;PMS5003;65659;49.234;-2.094;2024-01-11T02:43:28;58;55;
73241;PMS5003;65659;49.234;-2.094;2024-01-11T02:45:54;52;50;
73241;PMS5003;65659;49.234;-2.094;2024-01-11T02:48:18;61;59;
73241;PMS5003;65659;49.234;-2.094;2024-01-11T02:50:44;53;50;
73241;PMS5003;65659;49.234;-2.094;2024-01-11T02:53:09;57;55;
73241;PMS5003;65659;49.234;-2.094;2024-01-11T02:55:35;57;54;
73241;PMS5003;65659;49.234;-2.094;2024-01-11T02:58:00;59;57;
73241;PMS5003;65659;49.234;-2.094;2024-01-11T03:00:25;56;53;
73241;PMS5003;65659;49.234;-2.094;2024-01-11T03:02:52;51;47;
73241;PMS5003;65659;49.234;-2.094;2024-01-11T03:05:17;59;58;
73241;PMS5003;65659;49.234;-2.094;2024-01-11T03:07:42;48;46;
73241;PMS5003;65659;49.234;-2.094;2024-01-11T03:10:07;56;54;
73241;PMS5003;65659;49.234;-2.094;2024-01-11T03:12:33;60;54;
73241;PMS5003;65659;49.234;-2.094;2024-01-11T03:14:58;63;57;
73241;PMS5003;65659;49.234;-2.094;2024-01-11T03:17:24;61;52;
73241;PMS5003;65659;49.234;-2.094;2024-01-11T03:19:49;59;53;
73241;PMS5003;65659;49.234;-2.094;2024-01-11T03:22:15;57;54;
73241;PMS5003;65659;49.234;-2.094;2024-01-11T03:24:40;56;52;
73241;PMS5003;65659;49.234;-2.094;2024-01-11T03:27:06;55;50;
73241;PMS5003;65659;49.234;-2.094;2024-01-11T03:29:31;56;52;
73241;PMS5003;65659;49.234;-2.094;2024-01-11T03:31:56;55;53;
73241;PMS5003;65659;49.234;-2.094;2024-01-11T03:34:21;62;57;
73241;PMS5003;65659;49.234;-2.094;2024-01-11T03:36:46;59;57;
73241;PMS5003;65659;49.234;-2.094;2024-01-11T03:39:12;53;52;
73241;PMS5003;65659;49.234;-2.094;2024-01-11T03:41:37;55;53;
73241;PMS5003;65659;49.234;-2.094;2024-01-11T03:46:28;55;51;
73241;PMS5003;65659;49.234;-2.094;2024-01-11T03:48:54;57;54;
73241;PMS5003;65659;49.234;-2.094;2024-01-11T03:51:20;56;53;
73241;PMS5003;65659;49.234;-2.094;2024-01-11T03:56:10;56;53;
73241;PMS5003;65659;49.234;-2.094;2024-01-11T03:58:37;50;48;
73241;PMS5003;65659;49.234;-2.094;2024-01-11T04:01:02;56;52;
73241;PMS5003;65659;49.234;-2.094;2024-01-11T04:03:27;56;53;
73241;PMS5003;65659;49.234;-2.094;2024-01-11T04:05:53;59;58;
73241;PMS5003;65659;49.234;-2.094;2024-01-11T04:08:18;57;55;
73241;PMS5003;65659;49.234;-2.094;2024-01-11T04:13:09;58;53;
73241;PMS5003;65659;49.234;-2.094;2024-01-11T04:15:34;51;48;
73241;PMS5003;65659;49.234;-2.094;2024-01-11T04:18:00;61;57;
73241;PMS5003;65659;49.234;-2.094;2024-01-11T04:20:27;50;49;
73241;PMS5003;65659;49.234;-2.094;2024-01-11T04:22:51;53;51;
73241;PMS5003;65659;49.234;-2.094;2024-01-11T04:25:17;49;46;
73241;PMS5003;65659;49.234;-2.094;2024-01-11T04:27:42;46;43;
73241;PMS5003;65659;49.234;-2.094;2024-01-11T04:34:58;44;43;
73241;PMS5003;65659;49.234;-2.094;2024-01-11T04:37:24;49;43;
73241;PMS5003;65659;49.234;-2.094;2024-01-11T04:39:50;48;45;
73241;PMS5003;65659;49.234;-2.094;2024-01-11T04:42:17;39;37;
73241;PMS5003;65659;49.234;-2.094;2024-01-11T04:44:40;43;41;
73241;PMS5003;65659;49.234;-2.094;2024-01-11T04:47:06;41;40;
73241;PMS5003;65659;49.234;-2.094;2024-01-11T04:49:31;41;37;
73241;PMS5003;65659;49.234;-2.094;2024-01-11T04:51:57;45;43;
73241;PMS5003;65659;49.234;-2.094;2024-01-11T04:54:23;42;39;
73241;PMS5003;65659;49.234;-2.094;2024-01-11T05:01:39;43;41;
73241;PMS5003;65659;49.234;-2.094;2024-01-11T05:04:06;41;40;
73241;PMS5003;65659;49.234;-2.094;2024-01-11T05:06:30;38;38;
73241;PMS5003;65659;49.234;-2.094;2024-01-11T05:08:56;44;43;
73241;PMS5003;65659;49.234;-2.094;2024-01-11T05:11:22;33;31;
73241;PMS5003;65659;49.234;-2.094;2024-01-11T05:13:46;37;35;
73241;PMS5003;65659;49.234;-2.094;2024-01-11T05:21:03;37;37;
73241;PMS5003;65659;49.234;-2.094;2024-01-11T05:23:29;39;37;
73241;PMS5003;65659;49.234;-2.094;2024-01-11T05:25:55;38;35;
73241;PMS5003;65659;49.234;-2.094;2024-01-11T05:28:20;44;41;
73241;PMS5003;65659;49.234;-2.094;2024-01-11T05:30:47;41;39;
73241;PMS5003;65659;49.234;-2.094;2024-01-11T05:35:37;39;36;
73241;PMS5003;65659;49.234;-2.094;2024-01-11T05:38:03;44;41;
73241;PMS5003;65659;49.234;-2.094;2024-01-11T05:40:28;45;43;
73241;PMS5003;65659;49.234;-2.094;2024-01-11T05:43:04;45;43;
73241;PMS5003;65659;49.234;-2.094;2024-01-11T05:47:44;42;41;
73241;PMS5003;65659;49.234;-2.094;2024-01-11T05:50:09;38;37;
73241;PMS5003;65659;49.234;-2.094;2024-01-11T05:55:01;40;37;
73241;PMS5003;65659;49.234;-2.094;2024-01-11T05:57:26;39;38;
73241;PMS5003;65659;49.234;-2.094;2024-01-11T05:59:51;40;40;
73241;PMS5003;65659;49.234;-2.094;2024-01-11T06:02:17;44;41;
73241;PMS5003;65659;49.234;-2.094;2024-01-11T06:04:42;43;42;
73241;PMS5003;65659;49.234;-2.094;2024-01-11T06:07:07;45;44;
73241;PMS5003;65659;49.234;-2.094;2024-01-11T06:09:33;39;36;
73241;PMS5003;65659;49.234;-2.094;2024-01-11T06:11:58;41;38;
73241;PMS5003;65659;49.234;-2.094;2024-01-11T06:16:50;42;41;
73241;PMS5003;65659;49.234;-2.094;2024-01-11T06:19:15;38;36;
73241;PMS5003;65659;49.234;-2.094;2024-01-11T06:21:41;45;43;
73241;PMS5003;65659;49.234;-2.094;2024-01-11T06:28:58;43;38;
73241;PMS5003;65659;49.234;-2.094;2024-01-11T06:31:23;38;37;
73241;PMS5003;65659;49.234;-2.094;2024-01-11T06:33:49;39;37;
73241;PMS5003;65659;49.234;-2.094;2024-01-11T06:36:14;44;39;
73241;PMS5003;65659;49.234;-2.094;2024-01-11T06:38:39;39;37;
73241;PMS5003;65659;49.234;-2.094;2024-01-11T06:41:05;36;33;
73241;PMS5003;65659;49.234;-2.094;2024-01-11T06:43:30;41;39;
73241;PMS5003;65659;49.234;-2.094;2024-01-11T06:45:56;42;40;
73241;PMS5003;65659;49.234;-2.094;2024-01-11T06:48:21;36;35;
73241;PMS5003;65659;49.234;-2.094;2024-01-11T06:53:13;40;39;
73241;PMS5003;65659;49.234;-2.094;2024-01-11T06:55:38;35;32;
73241;PMS5003;65659;49.234;-2.094;2024-01-11T06:58:03;34;31;
73241;PMS5003;65659;49.234;-2.094;2024-01-11T07:00:35;34;33;
73241;PMS5003;65659;49.234;-2.094;2024-01-11T07:02:54;34;33;
73241;PMS5003;65659;49.234;-2.094;2024-01-11T07:05:20;33;32;
73241;PMS5003;65659;49.234;-2.094;2024-01-11T07:07:46;33;30;
73241;PMS5003;65659;49.234;-2.094;2024-01-11T07:10:11;31;29;
73241;PMS5003;65659;49.234;-2.094;2024-01-11T07:12:36;33;30;
73241;PMS5003;65659;49.234;-2.094;2024-01-11T07:15:02;36;36;
73241;PMS5003;65659;49.234;-2.094;2024-01-11T07:17:27;29;28;
73241;PMS5003;65659;49.234;-2.094;2024-01-11T07:19:52;27;26;
73241;PMS5003;65659;49.234;-2.094;2024-01-11T07:22:18;28;27;
73241;PMS5003;65659;49.234;-2.094;2024-01-11T07:24:44;33;29;
73241;PMS5003;65659;49.234;-2.094;2024-01-11T07:27:09;26;26;
73241;PMS5003;65659;49.234;-2.094;2024-01-11T07:29:35;27;27;
73241;PMS5003;65659;49.234;-2.094;2024-01-11T07:32:00;27;26;
73241;PMS5003;65659;49.234;-2.094;2024-01-11T07:34:26;30;29;
73241;PMS5003;65659;49.234;-2.094;2024-01-11T07:36:51;27;26;
73241;PMS5003;65659;49.234;-2.094;2024-01-11T07:39:16;26;25;
73241;PMS5003;65659;49.234;-2.094;2024-01-11T07:41:41;27;24;
73241;PMS5003;65659;49.234;-2.094;2024-01-11T07:44:07;26;25;
73241;PMS5003;65659;49.234;-2.094;2024-01-11T07:46:33;24;23;
73241;PMS5003;65659;49.234;-2.094;2024-01-11T07:48:58;31;29;
73241;PMS5003;65659;49.234;-2.094;2024-01-11T07:51:23;30;29;
73241;PMS5003;65659;49.234;-2.094;2024-01-11T07:53:49;35;34;
73241;PMS5003;65659;49.234;-2.094;2024-01-11T07:56:15;25;24;
73241;PMS5003;65659;49.234;-2.094;2024-01-11T07:58:40;25;23;
73241;PMS5003;65659;49.234;-2.094;2024-01-11T08:01:06;27;25;
73241;PMS5003;65659;49.234;-2.094;2024-01-11T08:03:31;26;25;
73241;PMS5003;65659;49.234;-2.094;2024-01-11T08:05:56;39;37;
73241;PMS5003;65659;49.234;-2.094;2024-01-11T08:08:22;35;35;
73241;PMS5003;65659;49.234;-2.094;2024-01-11T08:10:47;34;33;
73241;PMS5003;65659;49.234;-2.094;2024-01-11T08:13:13;31;30;
73241;PMS5003;65659;49.234;-2.094;2024-01-11T08:15:38;26;24;
73241;PMS5003;65659;49.234;-2.094;2024-01-11T08:18:04;29;29;
73241;PMS5003;65659;49.234;-2.094;2024-01-11T08:20:29;31;29;
73241;PMS5003;65659;49.234;-2.094;2024-01-11T08:22:54;30;28;
73241;PMS5003;65659;49.234;-2.094;2024-01-11T08:25:20;44;42;
73241;PMS5003;65659;49.234;-2.094;2024-01-11T08:27:45;43;40;
73241;PMS5003;65659;49.234;-2.094;2024-01-11T08:30:11;37;35;
73241;PMS5003;65659;49.234;-2.094;2024-01-11T08:32:36;35;33;
73241;PMS5003;65659;49.234;-2.094;2024-01-11T08:35:02;43;42;
73241;PMS5003;65659;49.234;-2.094;2024-01-11T08:37:27;40;39;
73241;PMS5003;65659;49.234;-2.094;2024-01-11T08:39:54;40;38;
73241;PMS5003;65659;49.234;-2.094;2024-01-11T08:42:18;35;34;
73241;PMS5003;65659;49.234;-2.094;2024-01-11T08:44:44;44;43;
73241;PMS5003;65659;49.234;-2.094;2024-01-11T08:47:09;44;42;
73241;PMS5003;65659;49.234;-2.094;2024-01-11T08:49:36;36;33;
73241;PMS5003;65659;49.234;-2.094;2024-01-11T08:52:01;39;38;
73241;PMS5003;65659;49.234;-2.094;2024-01-11T08:54:27;42;41;
73241;PMS5003;65659;49.234;-2.094;2024-01-11T08:56:53;41;41;
73241;PMS5003;65659;49.234;-2.094;2024-01-11T08:59:18;42;39;
73241;PMS5003;65659;49.234;-2.094;2024-01-11T09:01:48;48;46;
73241;PMS5003;65659;49.234;-2.094;2024-01-11T09:04:10;40;39;
73241;PMS5003;65659;49.234;-2.094;2024-01-11T09:06:36;35;33;
73241;PMS5003;65659;49.234;-2.094;2024-01-11T09:09:02;38;35;
73241;PMS5003;65659;49.234;-2.094;2024-01-11T09:11:37;37;36;
73241;PMS5003;65659;49.234;-2.094;2024-01-11T09:13:53;37;35;
73241;PMS5003;65659;49.234;-2.094;2024-01-11T09:16:20;33;33;
73241;PMS5003;65659;49.234;-2.094;2024-01-11T09:18:45;34;34;
73241;PMS5003;65659;49.234;-2.094;2024-01-11T09:21:13;33;32;
73241;PMS5003;65659;49.234;-2.094;2024-01-11T09:23:32;27;26;
73241;PMS5003;65659;49.234;-2.094;2024-01-11T09:26:00;29;28;
73241;PMS5003;65659;49.234;-2.094;2024-01-11T09:28:27;34;31;
73241;PMS5003;65659;49.234;-2.094;2024-01-11T09:30:51;37;36;
73241;PMS5003;65659;49.234;-2.094;2024-01-11T09:33:15;29;27;
73241;PMS5003;65659;49.234;-2.094;2024-01-11T09:35:42;73;68;
73241;PMS5003;65659;49.234;-2.094;2024-01-11T09:38:06;44;42;
73241;PMS5003;65659;49.234;-2.094;2024-01-11T09:40:31;31;30;
73241;PMS5003;65659;49.234;-2.094;2024-01-11T09:42:58;43;42;
73241;PMS5003;65659;49.234;-2.094;2024-01-11T09:45:23;34;34;
73241;PMS5003;65659;49.234;-2.094;2024-01-11T09:47:47;32;30;
73241;PMS5003;65659;49.234;-2.094;2024-01-11T09:50:13;39;37;
73241;PMS5003;65659;49.234;-2.094;2024-01-11T09:52:39;41;39;
73241;PMS5003;65659;49.234;-2.094;2024-01-11T09:55:04;36;34;
73241;PMS5003;65659;49.234;-2.094;2024-01-11T09:57:31;32;30;
73241;PMS5003;65659;49.234;-2.094;2024-01-11T09:59:56;38;37;
73241;PMS5003;65659;49.234;-2.094;2024-01-11T10:02:23;26;26;
73241;PMS5003;65659;49.234;-2.094;2024-01-11T10:04:46;33;32;
73241;PMS5003;65659;49.234;-2.094;2024-01-11T10:07:10;33;32;
73241;PMS5003;65659;49.234;-2.094;2024-01-11T10:09:36;38;37;
73241;PMS5003;65659;49.234;-2.094;2024-01-11T10:12:02;32;31;
73241;PMS5003;65659;49.234;-2.094;2024-01-11T10:14:27;33;32;
73241;PMS5003;65659;49.234;-2.094;2024-01-11T10:16:54;31;31;
73241;PMS5003;65659;49.234;-2.094;2024-01-11T10:19:17;37;36;
73241;PMS5003;65659;49.234;-2.094;2024-01-11T10:21:42;34;33;
73241;PMS5003;65659;49.234;-2.094;2024-01-11T10:24:08;31;29;
73241;PMS5003;65659;49.234;-2.094;2024-01-11T10:26:33;33;32;
73241;PMS5003;65659;49.234;-2.094;2024-01-11T10:28:59;31;31;
73241;PMS5003;65659;49.234;-2.094;2024-01-11T10:31:24;33;31;
73241;PMS5003;65659;49.234;-2.094;2024-01-11T10:33:50;33;32;
73241;PMS5003;65659;49.234;-2.094;2024-01-11T10:36:17;28;28;
73241;PMS5003;65659;49.234;-2.094;2024-01-11T10:38:41;32;31;
73241;PMS5003;65659;49.234;-2.094;2024-01-11T10:41:06;29;27;
73241;PMS5003;65659;49.234;-2.094;2024-01-11T10:43:32;30;30;
73241;PMS5003;65659;49.234;-2.094;2024-01-11T10:45:59;33;29;
73241;PMS5003;65659;49.234;-2.094;2024-01-11T10:48:22;31;29;
73241;PMS5003;65659;49.234;-2.094;2024-01-11T10:50:55;35;35;
73241;PMS5003;65659;49.234;-2.094;2024-01-11T10:53:17;32;28;
73241;PMS5003;65659;49.234;-2.094;2024-01-11T10:55:39;31;28;
73241;PMS5003;65659;49.234;-2.094;2024-01-11T10:58:04;44;42;
73241;PMS5003;65659;49.234;-2.094;2024-01-11T11:00:30;35;33;
73241;PMS5003;65659;49.234;-2.094;2024-01-11T11:02:55;35;34;
73241;PMS5003;65659;49.234;-2.094;2024-01-11T11:05:21;30;29;
73241;PMS5003;65659;49.234;-2.094;2024-01-11T11:07:47;32;31;
73241;PMS5003;65659;49.234;-2.094;2024-01-11T11:10:11;27;25;
73241;PMS5003;65659;49.234;-2.094;2024-01-11T11:12:36;38;37;
73241;PMS5003;65659;49.234;-2.094;2024-01-11T11:15:03;32;28;
73241;PMS5003;65659;49.234;-2.094;2024-01-11T11:17:27;29;28;
73241;PMS5003;65659;49.234;-2.094;2024-01-11T11:19:52;30;29;
73241;PMS5003;65659;49.234;-2.094;2024-01-11T11:22:18;37;35;
73241;PMS5003;65659;49.234;-2.094;2024-01-11T11:24:44;31;30;
73241;PMS5003;65659;49.234;-2.094;2024-01-11T11:27:09;31;31;
73241;PMS5003;65659;49.234;-2.094;2024-01-11T11:29:34;26;25;
73241;PMS5003;65659;49.234;-2.094;2024-01-11T11:32:00;34;33;
73241;PMS5003;65659;49.234;-2.094;2024-01-11T11:36:51;31;29;
73241;PMS5003;65659;49.234;-2.094;2024-01-11T11:39:17;29;25;
73241;PMS5003;65659;49.234;-2.094;2024-01-11T11:41:41;25;24;
73241;PMS5003;65659;49.234;-2.094;2024-01-11T11:44:06;30;29;
73241;PMS5003;65659;49.234;-2.094;2024-01-11T11:46:34;23;22;
73241;PMS5003;65659;49.234;-2.094;2024-01-11T11:48:57;28;27;
73241;PMS5003;65659;49.234;-2.094;2024-01-11T11:51:23;29;28;
73241;PMS5003;65659;49.234;-2.094;2024-01-11T11:53:48;24;22;
73241;PMS5003;65659;49.234;-2.094;2024-01-11T11:56:13;20;19;
73241;PMS5003;65659;49.234;-2.094;2024-01-11T11:58:38;25;24;
73241;PMS5003;65659;49.234;-2.094;2024-01-11T12:01:03;26;25;
73241;PMS5003;65659;49.234;-2.094;2024-01-11T12:03:29;17;17;
73241;PMS5003;65659;49.234;-2.094;2024-01-11T12:05:54;29;29;
73241;PMS5003;65659;49.234;-2.094;2024-01-11T12:08:19;30;29;
73241;PMS5003;65659;49.234;-2.094;2024-01-11T12:10:44;29;28;
73241;PMS5003;65659;49.234;-2.094;2024-01-11T12:13:10;26;26;
73241;PMS5003;65659;49.234;-2.094;2024-01-11T12:15:35;24;23;
73241;PMS5003;65659;49.234;-2.094;2024-01-11T12:18:01;31;31;
73241;PMS5003;65659;49.234;-2.094;2024-01-11T12:20:26;33;31;
73241;PMS5003;65659;49.234;-2.094;2024-01-11T12:22:51;33;32;
73241;PMS5003;65659;49.234;-2.094;2024-01-11T12:25:17;32;30;
73241;PMS5003;65659;49.234;-2.094;2024-01-11T12:27:43;30;29;
73241;PMS5003;65659;49.234;-2.094;2024-01-11T12:30:08;35;35;
73241;PMS5003;65659;49.234;-2.094;2024-01-11T12:32:33;32;30;
73241;PMS5003;65659;49.234;-2.094;2024-01-11T12:34:59;31;30;
73241;PMS5003;65659;49.234;-2.094;2024-01-11T12:37:25;28;27;
73241;PMS5003;65659;49.234;-2.094;2024-01-11T12:39:49;30;27;
73241;PMS5003;65659;49.234;-2.094;2024-01-11T12:42:14;28;27;
73241;PMS5003;65659;49.234;-2.094;2024-01-11T12:44:40;32;30;
73241;PMS5003;65659;49.234;-2.094;2024-01-11T12:47:07;31;31;
73241;PMS5003;65659;49.234;-2.094;2024-01-11T12:49:31;30;28;
73241;PMS5003;65659;49.234;-2.094;2024-01-11T12:51:56;26;26;
73241;PMS5003;65659;49.234;-2.094;2024-01-11T12:54:21;34;31;
73241;PMS5003;65659;49.234;-2.094;2024-01-11T12:56:48;34;33;
73241;PMS5003;65659;49.234;-2.094;2024-01-11T12:59:13;33;32;
73241;PMS5003;65659;49.234;-2.094;2024-01-11T13:01:38;29;29;
73241;PMS5003;65659;49.234;-2.094;2024-01-11T13:04:04;30;28;
73241;PMS5003;65659;49.234;-2.094;2024-01-11T13:06:30;31;29;
73241;PMS5003;65659;49.234;-2.094;2024-01-11T13:08:56;29;25;
73241;PMS5003;65659;49.234;-2.094;2024-01-11T13:11:20;30;29;
73241;PMS5003;65659;49.234;-2.094;2024-01-11T13:13:45;29;28;
73241;PMS5003;65659;49.234;-2.094;2024-01-11T13:16:10;27;25;
73241;PMS5003;65659;49.234;-2.094;2024-01-11T13:18:36;32;31;
73241;PMS5003;65659;49.234;-2.094;2024-01-11T13:21:02;34;34;
73241;PMS5003;65659;49.234;-2.094;2024-01-11T13:23:27;33;32;
73241;PMS5003;65659;49.234;-2.094;2024-01-11T13:25:52;33;33;
73241;PMS5003;65659;49.234;-2.094;2024-01-11T13:28:18;34;33;
73241;PMS5003;65659;49.234;-2.094;2024-01-11T13:30:44;35;34;
73241;PMS5003;65659;49.234;-2.094;2024-01-11T13:33:09;35;34;
73241;PMS5003;65659;49.234;-2.094;2024-01-11T13:35:34;36;34;
73241;PMS5003;65659;49.234;-2.094;2024-01-11T13:37:59;37;36;
73241;PMS5003;65659;49.234;-2.094;2024-01-11T13:40:24;47;45;
73241;PMS5003;65659;49.234;-2.094;2024-01-11T13:42:52;38;37;
73241;PMS5003;65659;49.234;-2.094;2024-01-11T13:45:15;35;33;
73241;PMS5003;65659;49.234;-2.094;2024-01-11T13:47:41;38;36;
73241;PMS5003;65659;49.234;-2.094;2024-01-11T13:50:07;31;29;
73241;PMS5003;65659;49.234;-2.094;2024-01-11T13:52:32;34;32;
73241;PMS5003;65659;49.234;-2.094;2024-01-11T13:54:58;34;33;
73241;PMS5003;65659;49.234;-2.094;2024-01-11T13:57:24;40;39;
73241;PMS5003;65659;49.234;-2.094;2024-01-11T13:59:50;41;39;
73241;PMS5003;65659;49.234;-2.094;2024-01-11T14:02:15;30;29;
73241;PMS5003;65659;49.234;-2.094;2024-01-11T14:04:40;30;30;
73241;PMS5003;65659;49.234;-2.094;2024-01-11T14:07:06;33;32;
73241;PMS5003;65659;49.234;-2.094;2024-01-11T14:09:31;39;38;
73241;PMS5003;65659;49.234;-2.094;2024-01-11T14:11:56;37;36;
73241;PMS5003;65659;49.234;-2.094;2024-01-11T14:14:23;33;32;
73241;PMS5003;65659;49.234;-2.094;2024-01-11T14:16:49;32;31;
73241;PMS5003;65659;49.234;-2.094;2024-01-11T14:19:14;30;29;
73241;PMS5003;65659;49.234;-2.094;2024-01-11T14:21:39;34;34;
73241;PMS5003;65659;49.234;-2.094;2024-01-11T14:24:03;30;30;
73241;PMS5003;65659;49.234;-2.094;2024-01-11T14:26:30;34;33;
73241;PMS5003;65659;49.234;-2.094;2024-01-11T14:28:56;31;30;
73241;PMS5003;65659;49.234;-2.094;2024-01-11T14:31:19;33;30;
73241;PMS5003;65659;49.234;-2.094;2024-01-11T14:33:46;33;31;
73241;PMS5003;65659;49.234;-2.094;2024-01-11T14:36:10;35;33;
73241;PMS5003;65659;49.234;-2.094;2024-01-11T14:38:36;34;33;
73241;PMS5003;65659;49.234;-2.094;2024-01-11T14:41:01;33;32;
73241;PMS5003;65659;49.234;-2.094;2024-01-11T14:43:28;31;29;
73241;PMS5003;65659;49.234;-2.094;2024-01-11T14:45:52;29;28;
73241;PMS5003;65659;49.234;-2.094;2024-01-11T14:48:17;28;26;
73241;PMS5003;65659;49.234;-2.094;2024-01-11T14:50:42;30;30;
73241;PMS5003;65659;49.234;-2.094;2024-01-11T14:53:08;31;30;
73241;PMS5003;65659;49.234;-2.094;2024-01-11T14:55:34;35;34;
73241;PMS5003;65659;49.234;-2.094;2024-01-11T14:57:58;36;34;
73241;PMS5003;65659;49.234;-2.094;2024-01-11T15:00:24;36;33;
73241;PMS5003;65659;49.234;-2.094;2024-01-11T15:02:49;41;39;
73241;PMS5003;65659;49.234;-2.094;2024-01-11T15:05:15;41;38;
73241;PMS5003;65659;49.234;-2.094;2024-01-11T15:07:39;34;34;
73241;PMS5003;65659;49.234;-2.094;2024-01-11T15:10:05;36;33;
73241;PMS5003;65659;49.234;-2.094;2024-01-11T15:12:31;35;34;
73241;PMS5003;65659;49.234;-2.094;2024-01-11T15:14:55;38;35;
73241;PMS5003;65659;49.234;-2.094;2024-01-11T15:17:20;39;36;
73241;PMS5003;65659;49.234;-2.094;2024-01-11T15:19:45;43;41;
73241;PMS5003;65659;49.234;-2.094;2024-01-11T15:24:36;36;36;
73241;PMS5003;65659;49.234;-2.094;2024-01-11T15:27:02;38;34;
73241;PMS5003;65659;49.234;-2.094;2024-01-11T15:29:27;35;35;
73241;PMS5003;65659;49.234;-2.094;2024-01-11T15:31:52;35;33;
73241;PMS5003;65659;49.234;-2.094;2024-01-11T15:34:18;31;30;
73241;PMS5003;65659;49.234;-2.094;2024-01-11T15:36:42;33;31;
73241;PMS5003;65659;49.234;-2.094;2024-01-11T15:39:08;31;30;
73241;PMS5003;65659;49.234;-2.094;2024-01-11T15:41:33;34;33;
73241;PMS5003;65659;49.234;-2.094;2024-01-11T15:43:59;36;36;
73241;PMS5003;65659;49.234;-2.094;2024-01-11T15:46:24;27;27;
73241;PMS5003;65659;49.234;-2.094;2024-01-11T15:48:55;27;26;
73241;PMS5003;65659;49.234;-2.094;2024-01-11T15:51:14;38;35;
73241;PMS5003;65659;49.234;-2.094;2024-01-11T15:53:40;32;30;
73241;PMS5003;65659;49.234;-2.094;2024-01-11T15:56:05;31;29;
73241;PMS5003;65659;49.234;-2.094;2024-01-11T15:58:31;35;33;
73241;PMS5003;65659;49.234;-2.094;2024-01-11T16:00:57;38;37;
73241;PMS5003;65659;49.234;-2.094;2024-01-11T16:03:22;32;30;
73241;PMS5003;65659;49.234;-2.094;2024-01-11T16:05:47;35;33;
73241;PMS5003;65659;49.234;-2.094;2024-01-11T16:08:12;39;37;
73241;PMS5003;65659;49.234;-2.094;2024-01-11T16:10:38;35;34;
73241;PMS5003;65659;49.234;-2.094;2024-01-11T16:13:02;27;27;
73241;PMS5003;65659;49.234;-2.094;2024-01-11T16:15:27;29;28;
73241;PMS5003;65659;49.234;-2.094;2024-01-11T16:17:53;29;27;
73241;PMS5003;65659;49.234;-2.094;2024-01-11T16:20:19;32;30;
73241;PMS5003;65659;49.234;-2.094;2024-01-11T16:22:44;31;29;
73241;PMS5003;65659;49.234;-2.094;2024-01-11T16:25:09;33;31;
73241;PMS5003;65659;49.234;-2.094;2024-01-11T16:27:34;25;24;
73241;PMS5003;65659;49.234;-2.094;2024-01-11T16:29:59;31;31;
73241;PMS5003;65659;49.234;-2.094;2024-01-11T16:32:24;31;29;